Time;durP1;ratioP1;P1;durP2;ratioP2;P2;SDS_P1;SDS_P2;PMS_P1;PMS_P2;Temp;Humidity;BMP_temperature;BMP_pressure;BME280_temperature;BME280_humidity;BME280_pressure;Samples;Min_cycle;Max_cycle;Signal;HPM_P1;HPM_P2
2022/03/31 00:00:48;;;;;;;;;;;17.90;53.70;;;;;;4964385;28;19914;-67
2022/03/31 00:03:17;;;;;;;;;;;17.90;53.80;;;;;;4965812;28;20456;-66
2022/03/31 00:05:44;;;;;;;;;;;17.90;53.80;;;;;;4940520;28;19922;-67
2022/03/31 00:08:10;;;;;;;;;;;18.00;53.70;;;;;;4948368;28;19914;-67
2022/03/31 00:10:36;;;;;;;;;;;18.00;53.60;;;;;;4946598;28;20428;-67
2022/03/31 00:13:04;;;;;;;;;;;18.00;53.60;;;;;;4964843;28;20364;-66
2022/03/31 00:15:30;;;;;;;;;;;18.00;53.60;;;;;;4946823;28;20320;-67
2022/03/31 00:17:55;;;;;;;;;;;18.00;53.70;;;;;;4947464;28;19910;-66
2022/03/31 00:20:21;;;;;;;;;;;17.90;53.80;;;;;;4964716;28;19922;-65
2022/03/31 00:22:46;;;;;;;;;;;18.00;53.80;;;;;;4965333;28;19977;-67
2022/03/31 00:25:13;;;;;;;;;;;17.90;53.70;;;;;;4964340;28;19914;-67
2022/03/31 00:27:39;;;;;;;;;;;17.90;53.60;;;;;;4965160;28;19961;-66
2022/03/31 00:30:05;;;;;;;;;;;17.90;53.70;;;;;;4962604;28;19946;-66
2022/03/31 00:32:31;;;;;;;;;;;17.90;53.70;;;;;;4963056;28;19914;-66
2022/03/31 00:34:56;;;;;;;;;;;17.90;53.60;;;;;;4964081;28;19923;-66
2022/03/31 00:37:22;;;;;;;;;;;17.90;53.60;;;;;;4947888;28;19922;-66
2022/03/31 00:39:48;;;;;;;;;;;18.00;53.40;;;;;;4946218;28;19997;-66
2022/03/31 00:42:15;;;;;;;;;;;18.00;53.50;;;;;;4964785;28;19925;-66
2022/03/31 00:44:41;;;;;;;;;;;17.90;53.50;;;;;;4962519;28;20001;-66
2022/03/31 00:47:07;;;;;;;;;;;18.00;53.50;;;;;;4950856;28;20577;-66
2022/03/31 00:49:34;;;;;;;;;;;17.90;53.40;;;;;;4945773;28;19918;-64
2022/03/31 00:51:59;;;;;;;;;;;18.00;53.50;;;;;;4963997;28;19918;-66
2022/03/31 00:54:25;;;;;;;;;;;17.90;53.60;;;;;;4963122;28;19940;-66
2022/03/31 00:56:51;;;;;;;;;;;17.90;53.60;;;;;;4954489;28;19980;-66
2022/03/31 00:59:17;;;;;;;;;;;17.90;53.60;;;;;;4945458;28;19994;-66
2022/03/31 01:01:44;;;;;;;;;;;17.80;53.70;;;;;;4964641;28;19918;-65
2022/03/31 01:04:11;;;;;;;;;;;17.90;53.60;;;;;;4946964;28;19922;-65
2022/03/31 01:06:36;;;;;;;;;;;17.90;53.50;;;;;;4941770;28;19917;-64
2022/03/31 01:09:02;;;;;;;;;;;17.90;53.50;;;;;;4963123;28;19918;-66
2022/03/31 01:11:31;;;;;;;;;;;17.90;53.50;;;;;;4963525;28;19918;-66
2022/03/31 01:13:56;;;;;;;;;;;17.90;53.40;;;;;;4961931;28;19915;-66
2022/03/31 01:16:22;;;;;;;;;;;17.80;53.60;;;;;;4960227;28;19961;-66
2022/03/31 01:18:47;;;;;;;;;;;17.80;53.70;;;;;;4962483;28;19976;-66
2022/03/31 01:21:13;;;;;;;;;;;17.80;53.70;;;;;;4964185;28;20308;-65
2022/03/31 01:23:38;;;;;;;;;;;17.80;53.70;;;;;;4945979;28;20376;-66
2022/03/31 01:26:10;;;;;;;;;;;17.80;53.60;;;;;;4963919;28;20050;-66
2022/03/31 01:28:42;;;;;;;;;;;17.80;53.70;;;;;;4962417;28;19966;-67
2022/03/31 01:31:08;;;;;;;;;;;17.70;53.70;;;;;;4946323;28;19993;-66
2022/03/31 01:33:33;;;;;;;;;;;17.70;53.70;;;;;;4946046;28;20005;-65
2022/03/31 01:35:59;;;;;;;;;;;17.80;53.70;;;;;;4963416;28;19923;-66
2022/03/31 01:38:25;;;;;;;;;;;17.80;53.60;;;;;;4946014;28;19914;-64
2022/03/31 01:40:50;;;;;;;;;;;17.80;53.60;;;;;;4962094;28;19918;-66
2022/03/31 01:43:16;;;;;;;;;;;17.70;53.50;;;;;;4962770;28;19954;-67
2022/03/31 01:45:41;;;;;;;;;;;17.80;53.50;;;;;;4963979;28;20400;-66
2022/03/31 01:48:07;;;;;;;;;;;17.80;53.70;;;;;;4950173;28;20485;-66
2022/03/31 01:50:32;;;;;;;;;;;17.70;53.60;;;;;;4944597;28;19918;-66
2022/03/31 01:52:58;;;;;;;;;;;17.80;53.60;;;;;;4963543;28;19921;-65
2022/03/31 01:55:24;;;;;;;;;;;17.80;53.50;;;;;;4962126;28;19918;-66
2022/03/31 01:57:49;;;;;;;;;;;17.70;53.60;;;;;;4962655;28;19918;-66
2022/03/31 02:00:15;;;;;;;;;;;17.70;53.80;;;;;;4929743;28;19914;-66
2022/03/31 02:02:41;;;;;;;;;;;17.70;53.60;;;;;;4962896;28;19975;-66
2022/03/31 02:05:07;;;;;;;;;;;17.70;53.50;;;;;;4962099;28;19914;-66
2022/03/31 02:07:32;;;;;;;;;;;17.70;53.50;;;;;;4941050;28;19953;-66
2022/03/31 02:09:58;;;;;;;;;;;17.70;53.70;;;;;;4961793;28;19980;-66
2022/03/31 02:12:24;;;;;;;;;;;17.60;53.90;;;;;;4961009;28;19918;-66
2022/03/31 02:14:49;;;;;;;;;;;17.60;54.00;;;;;;4945487;28;20092;-67
2022/03/31 02:17:14;;;;;;;;;;;17.50;53.90;;;;;;4945227;28;19964;-66
2022/03/31 02:19:40;;;;;;;;;;;17.50;53.90;;;;;;4929292;28;20344;-66
2022/03/31 02:22:05;;;;;;;;;;;17.50;54.00;;;;;;4962874;28;19922;-66
2022/03/31 02:24:31;;;;;;;;;;;17.50;53.90;;;;;;4962677;28;19920;-65
2022/03/31 02:26:57;;;;;;;;;;;17.50;54.10;;;;;;4962447;28;20370;-66
2022/03/31 02:29:22;;;;;;;;;;;17.50;54.00;;;;;;4944436;28;19925;-66
2022/03/31 02:31:48;;;;;;;;;;;17.40;54.00;;;;;;4945906;28;19915;-66
2022/03/31 02:34:16;;;;;;;;;;;17.40;54.00;;;;;;4961439;28;19910;-66
2022/03/31 02:36:42;;;;;;;;;;;17.40;54.00;;;;;;4962715;28;19918;-65
2022/03/31 02:39:07;;;;;;;;;;;17.40;53.90;;;;;;4947183;28;19920;-66
2022/03/31 02:41:33;;;;;;;;;;;17.40;54.00;;;;;;4961968;28;20201;-66
2022/03/31 02:43:58;;;;;;;;;;;17.40;53.90;;;;;;4944863;28;19961;-65
2022/03/31 02:46:28;;;;;;;;;;;17.40;54.00;;;;;;4945752;28;19914;-66
2022/03/31 02:48:53;;;;;;;;;;;17.40;53.90;;;;;;4928578;28;20388;-67
2022/03/31 02:51:19;;;;;;;;;;;17.40;53.90;;;;;;4945812;28;19962;-66
2022/03/31 02:56:30;;;;;;;;;;;17.40;54.10;;;;;;4962055;28;19972;-66
2022/03/31 02:58:55;;;;;;;;;;;17.40;54.20;;;;;;4935982;28;20013;-67
2022/03/31 03:01:22;;;;;;;;;;;17.40;54.10;;;;;;4928937;28;20069;-66
2022/03/31 03:03:50;;;;;;;;;;;17.50;54.10;;;;;;4962274;28;19933;-63
2022/03/31 03:06:15;;;;;;;;;;;17.50;53.70;;;;;;4976474;28;19921;-66
2022/03/31 03:08:41;;;;;;;;;;;17.60;53.60;;;;;;4961599;28;19914;-66
2022/03/31 03:11:08;;;;;;;;;;;17.60;53.50;;;;;;4944064;28;19937;-67
2022/03/31 03:13:35;;;;;;;;;;;17.70;53.40;;;;;;4929373;28;19918;-67
2022/03/31 03:16:05;;;;;;;;;;;17.70;53.30;;;;;;4945191;28;20005;-66
2022/03/31 03:18:30;;;;;;;;;;;17.70;53.20;;;;;;4928896;28;19918;-66
2022/03/31 03:20:56;;;;;;;;;;;17.80;53.20;;;;;;4961946;28;20470;-66
2022/03/31 03:23:21;;;;;;;;;;;17.80;53.10;;;;;;4961704;28;19922;-66
2022/03/31 03:25:47;;;;;;;;;;;17.80;53.00;;;;;;4960167;28;19922;-66
2022/03/31 03:28:12;;;;;;;;;;;17.90;53.00;;;;;;4944546;28;20368;-67
2022/03/31 03:30:38;;;;;;;;;;;17.90;52.90;;;;;;4961382;28;20207;-66
2022/03/31 03:33:04;;;;;;;;;;;17.90;52.80;;;;;;4961068;28;20053;-65
2022/03/31 03:35:30;;;;;;;;;;;17.90;52.70;;;;;;4951251;28;20456;-65
2022/03/31 03:37:55;;;;;;;;;;;18.00;53.20;;;;;;4962110;28;19918;-66
2022/03/31 03:40:21;;;;;;;;;;;18.00;52.50;;;;;;4962672;28;20286;-66
2022/03/31 03:42:46;;;;;;;;;;;18.00;52.40;;;;;;4964964;28;19930;-66
2022/03/31 03:45:12;;;;;;;;;;;18.00;52.30;;;;;;4951015;28;19918;-66
2022/03/31 03:47:38;;;;;;;;;;;18.10;52.30;;;;;;4964916;28;19918;-66
2022/03/31 03:50:04;;;;;;;;;;;18.10;52.20;;;;;;4931023;28;19921;-66
2022/03/31 03:52:30;;;;;;;;;;;18.20;52.20;;;;;;4948246;28;19918;-66
2022/03/31 03:54:56;;;;;;;;;;;18.20;52.10;;;;;;4931500;28;20377;-67
2022/03/31 03:57:23;;;;;;;;;;;18.20;52.00;;;;;;4931821;28;19925;-67
2022/03/31 03:59:48;;;;;;;;;;;18.20;51.90;;;;;;4964541;28;19949;-65
2022/03/31 04:02:14;;;;;;;;;;;18.20;51.80;;;;;;4964517;28;19942;-64
2022/03/31 04:04:39;;;;;;;;;;;18.30;51.80;;;;;;4942089;28;20373;-66
2022/03/31 04:07:05;;;;;;;;;;;18.30;51.70;;;;;;4946788;28;19985;-66
2022/03/31 04:09:30;;;;;;;;;;;18.30;51.60;;;;;;4963816;28;19932;-66
2022/03/31 04:11:56;;;;;;;;;;;18.30;51.60;;;;;;4947807;28;19919;-67
2022/03/31 04:14:21;;;;;;;;;;;18.30;51.60;;;;;;4928983;28;20397;-64
2022/03/31 04:16:47;;;;;;;;;;;18.30;51.50;;;;;;4947808;28;19918;-66
2022/03/31 04:19:12;;;;;;;;;;;18.30;51.60;;;;;;4960551;28;19918;-66
2022/03/31 04:21:38;;;;;;;;;;;18.30;51.50;;;;;;4946068;28;19977;-63
2022/03/31 04:24:03;;;;;;;;;;;18.40;51.60;;;;;;4947481;28;20354;-65
2022/03/31 04:26:29;;;;;;;;;;;18.40;51.50;;;;;;4963769;28;19919;-66
2022/03/31 04:28:54;;;;;;;;;;;18.40;51.50;;;;;;4964600;28;19965;-67
2022/03/31 04:31:20;;;;;;;;;;;18.40;51.50;;;;;;4948462;28;19997;-67
2022/03/31 04:33:45;;;;;;;;;;;18.40;51.60;;;;;;4966437;28;19914;-63
2022/03/31 04:36:11;;;;;;;;;;;18.40;51.60;;;;;;4965917;28;19914;-65
2022/03/31 04:38:36;;;;;;;;;;;18.40;51.70;;;;;;4964538;28;22684;-69
2022/03/31 04:41:01;;;;;;;;;;;18.40;51.80;;;;;;4964923;28;19927;-68
2022/03/31 04:43:27;;;;;;;;;;;18.30;51.90;;;;;;4964975;28;20356;-68
2022/03/31 04:45:52;;;;;;;;;;;18.30;51.90;;;;;;4965617;28;20258;-67
2022/03/31 04:48:18;;;;;;;;;;;18.30;51.90;;;;;;4965600;28;19954;-64
2022/03/31 04:50:43;;;;;;;;;;;18.30;52.00;;;;;;4965324;28;19914;-66
2022/03/31 04:53:11;;;;;;;;;;;18.30;52.10;;;;;;4964386;28;19918;-69
2022/03/31 04:55:37;;;;;;;;;;;18.30;52.10;;;;;;4965059;28;19914;-68
2022/03/31 04:58:02;;;;;;;;;;;18.30;52.10;;;;;;4963705;28;20427;-67
2022/03/31 05:00:28;;;;;;;;;;;18.30;52.10;;;;;;4964196;28;20332;-66
2022/03/31 05:02:54;;;;;;;;;;;18.30;52.10;;;;;;4964802;28;19956;-66
2022/03/31 05:05:20;;;;;;;;;;;18.30;52.00;;;;;;4964910;28;19922;-67
2022/03/31 05:07:46;;;;;;;;;;;18.30;51.90;;;;;;4966216;28;19950;-66
2022/03/31 05:10:11;;;;;;;;;;;18.30;51.90;;;;;;4978543;22;19922;-64
2022/03/31 05:12:36;;;;;;;;;;;18.30;51.80;;;;;;4964158;28;21244;-66
2022/03/31 05:15:02;;;;;;;;;;;18.20;51.70;;;;;;4968229;28;19921;-66
2022/03/31 05:17:34;;;;;;;;;;;18.20;51.70;;;;;;4966174;28;19964;-67
2022/03/31 05:20:03;;;;;;;;;;;18.20;51.60;;;;;;4982844;28;20017;-67
2022/03/31 05:22:30;;;;;;;;;;;18.20;52.00;;;;;;4984573;28;19917;-66
2022/03/31 05:24:55;;;;;;;;;;;18.20;52.10;;;;;;4984335;28;19968;-68
2022/03/31 05:27:21;;;;;;;;;;;18.20;52.10;;;;;;4965213;28;20356;-68
2022/03/31 05:29:46;;;;;;;;;;;18.10;52.10;;;;;;4963230;28;19914;-66
2022/03/31 05:32:12;;;;;;;;;;;18.10;52.20;;;;;;4977359;28;19965;-67
2022/03/31 05:34:37;;;;;;;;;;;18.00;52.10;;;;;;4980805;28;19926;-67
2022/03/31 05:37:05;;;;;;;;;;;18.00;52.30;;;;;;4968917;28;20274;-67
2022/03/31 05:39:32;;;;;;;;;;;18.00;52.40;;;;;;4981725;28;19949;-66
2022/03/31 05:41:57;;;;;;;;;;;17.90;52.50;;;;;;4982675;28;20302;-67
2022/03/31 05:44:23;;;;;;;;;;;17.90;53.20;;;;;;4965213;28;20012;-67
2022/03/31 05:46:49;;;;;;;;;;;17.90;52.60;;;;;;4971899;28;19918;-67
2022/03/31 05:49:14;;;;;;;;;;;17.80;53.20;;;;;;4982012;28;19984;-67
2022/03/31 05:51:40;;;;;;;;;;;17.80;52.60;;;;;;4973120;28;19921;-70
2022/03/31 05:54:05;;;;;;;;;;;17.70;52.70;;;;;;4982742;28;20432;-68
2022/03/31 05:56:31;;;;;;;;;;;17.70;52.80;;;;;;4976062;28;19946;-69
2022/03/31 05:58:56;;;;;;;;;;;17.70;52.90;;;;;;4981991;28;20495;-69
2022/03/31 06:01:22;;;;;;;;;;;17.60;53.00;;;;;;4969135;28;19918;-69
2022/03/31 06:03:47;;;;;;;;;;;17.60;53.20;;;;;;4979482;28;19965;-67
2022/03/31 06:06:13;;;;;;;;;;;17.50;53.50;;;;;;4979590;28;20399;-67
2022/03/31 06:08:38;;;;;;;;;;;17.40;53.60;;;;;;4963818;28;19925;-67
2022/03/31 06:11:04;;;;;;;;;;;17.40;53.70;;;;;;4964842;28;19929;-68
2022/03/31 06:13:29;;;;;;;;;;;17.40;53.70;;;;;;4979987;28;19917;-67
2022/03/31 06:15:55;;;;;;;;;;;17.40;53.70;;;;;;4980828;28;20248;-68
2022/03/31 06:18:21;;;;;;;;;;;17.40;53.40;;;;;;4963508;28;19914;-68
2022/03/31 06:20:46;;;;;;;;;;;17.60;53.10;;;;;;4982258;28;19953;-67
2022/03/31 06:23:12;;;;;;;;;;;17.60;52.90;;;;;;4981598;28;20232;-68
2022/03/31 06:25:37;;;;;;;;;;;17.60;52.50;;;;;;4964246;28;19968;-68
2022/03/31 06:28:03;;;;;;;;;;;17.60;52.20;;;;;;4978653;28;19914;-68
2022/03/31 06:30:28;;;;;;;;;;;17.60;52.60;;;;;;4963700;28;20172;-67
2022/03/31 06:32:54;;;;;;;;;;;17.70;51.70;;;;;;4981338;28;19945;-68
2022/03/31 06:35:20;;;;;;;;;;;17.70;51.50;;;;;;4980339;28;19917;-66
2022/03/31 06:37:45;;;;;;;;;;;17.70;51.30;;;;;;4981999;28;20382;-68
2022/03/31 06:40:14;;;;;;;;;;;17.70;51.20;;;;;;4980253;28;19917;-67
2022/03/31 06:42:40;;;;;;;;;;;17.70;51.00;;;;;;4981777;28;19972;-67
2022/03/31 06:45:12;;;;;;;;;;;17.80;51.50;;;;;;4964404;28;19913;-66
2022/03/31 06:47:37;;;;;;;;;;;17.80;50.70;;;;;;4972350;28;19913;-68
2022/03/31 06:50:03;;;;;;;;;;;17.80;50.70;;;;;;4979463;28;20197;-66
2022/03/31 06:52:28;;;;;;;;;;;17.80;50.60;;;;;;4957877;28;19917;-67
2022/03/31 06:54:54;;;;;;;;;;;17.80;50.40;;;;;;4981975;28;20582;-66
2022/03/31 06:57:19;;;;;;;;;;;17.80;50.60;;;;;;4969308;28;20335;-67
2022/03/31 06:59:45;;;;;;;;;;;17.80;50.90;;;;;;4980373;28;19934;-67
2022/03/31 07:02:10;;;;;;;;;;;17.80;51.00;;;;;;4978306;28;19922;-66
2022/03/31 07:04:36;;;;;;;;;;;17.80;51.20;;;;;;4981822;28;19922;-67
2022/03/31 07:07:01;;;;;;;;;;;17.90;51.30;;;;;;4957114;28;19925;-67
2022/03/31 07:09:28;;;;;;;;;;;17.90;51.40;;;;;;4980197;28;20435;-67
2022/03/31 07:11:53;;;;;;;;;;;17.90;51.40;;;;;;4982096;28;19921;-69
2022/03/31 07:14:18;;;;;;;;;;;17.90;51.50;;;;;;4948112;28;19979;-68
2022/03/31 07:16:45;;;;;;;;;;;17.90;51.40;;;;;;4967970;28;19918;-67
2022/03/31 07:19:10;;;;;;;;;;;17.90;51.50;;;;;;4984782;28;20138;-68
2022/03/31 07:21:36;;;;;;;;;;;17.90;51.60;;;;;;4985396;28;19918;-68
2022/03/31 07:24:02;;;;;;;;;;;17.90;51.60;;;;;;4968930;28;19918;-68
2022/03/31 07:26:28;;;;;;;;;;;17.90;51.60;;;;;;4984624;28;20411;-67
2022/03/31 07:28:53;;;;;;;;;;;17.90;51.60;;;;;;4984553;28;19922;-66
2022/03/31 07:31:19;;;;;;;;;;;17.90;51.60;;;;;;4983335;28;19921;-66
2022/03/31 07:33:45;;;;;;;;;;;17.90;51.60;;;;;;4986091;28;19924;-68
2022/03/31 07:36:12;;;;;;;;;;;17.90;51.60;;;;;;4967870;28;19925;-69
2022/03/31 07:38:38;;;;;;;;;;;17.90;51.60;;;;;;4984254;28;20693;-67
2022/03/31 07:41:03;;;;;;;;;;;17.90;51.60;;;;;;4983486;28;19914;-68
2022/03/31 07:43:29;;;;;;;;;;;17.90;51.60;;;;;;4984845;28;19928;-68
2022/03/31 07:45:55;;;;;;;;;;;17.90;51.60;;;;;;4984869;28;19969;-67
2022/03/31 07:48:20;;;;;;;;;;;17.90;51.60;;;;;;4972678;28;19913;-68
2022/03/31 07:50:46;;;;;;;;;;;17.90;51.60;;;;;;4966978;28;19925;-67
2022/03/31 07:53:11;;;;;;;;;;;18.00;51.60;;;;;;4984773;28;19949;-68
2022/03/31 07:55:37;;;;;;;;;;;18.00;51.60;;;;;;4983460;28;20001;-67
2022/03/31 07:58:02;;;;;;;;;;;18.00;51.50;;;;;;4967503;28;20001;-68
2022/03/31 08:00:28;;;;;;;;;;;18.00;51.50;;;;;;4966614;28;20162;-68
2022/03/31 08:02:53;;;;;;;;;;;18.00;51.50;;;;;;4967249;28;19922;-68
2022/03/31 08:05:22;;;;;;;;;;;18.00;51.40;;;;;;4982576;28;20327;-66
2022/03/31 08:07:48;;;;;;;;;;;18.00;51.40;;;;;;4967814;28;19914;-67
2022/03/31 08:10:14;;;;;;;;;;;18.10;51.30;;;;;;4967279;28;20307;-69
2022/03/31 08:12:40;;;;;;;;;;;18.10;51.30;;;;;;4967466;28;20163;-69
2022/03/31 08:15:06;;;;;;;;;;;18.10;51.20;;;;;;4984474;28;20422;-68
2022/03/31 08:17:32;;;;;;;;;;;18.10;51.10;;;;;;4983401;28;20024;-67
2022/03/31 08:19:57;;;;;;;;;;;18.10;51.00;;;;;;4968682;28;20270;-67
2022/03/31 08:22:23;;;;;;;;;;;18.20;51.00;;;;;;4983848;28;19918;-67
2022/03/31 08:24:49;;;;;;;;;;;18.20;50.90;;;;;;4979676;28;20402;-68
2022/03/31 08:27:14;;;;;;;;;;;18.30;50.90;;;;;;4982402;28;19949;-67
2022/03/31 08:29:40;;;;;;;;;;;18.30;50.80;;;;;;4966528;28;19933;-68
2022/03/31 08:32:07;;;;;;;;;;;18.30;50.70;;;;;;4966804;28;19953;-68
2022/03/31 08:34:32;;;;;;;;;;;18.30;50.70;;;;;;4984478;28;19997;-67
2022/03/31 08:36:58;;;;;;;;;;;18.30;50.70;;;;;;4984617;28;20456;-67
2022/03/31 08:39:23;;;;;;;;;;;18.30;50.70;;;;;;4983203;28;19917;-68
2022/03/31 08:41:49;;;;;;;;;;;18.30;50.60;;;;;;4967265;28;19918;-67
2022/03/31 08:44:14;;;;;;;;;;;18.30;50.60;;;;;;4983851;28;19913;-68
2022/03/31 08:46:40;;;;;;;;;;;18.40;50.60;;;;;;4983696;28;19926;-67
2022/03/31 08:49:06;;;;;;;;;;;18.40;50.60;;;;;;4952883;28;20009;-67
2022/03/31 08:51:32;;;;;;;;;;;18.30;50.60;;;;;;4985937;28;20419;-67
2022/03/31 08:53:57;;;;;;;;;;;18.30;50.60;;;;;;4981118;28;20174;-68
2022/03/31 08:56:23;;;;;;;;;;;18.30;50.60;;;;;;4984337;28;20307;-69
2022/03/31 08:58:49;;;;;;;;;;;18.30;50.70;;;;;;4983860;28;19929;-68
2022/03/31 09:01:15;;;;;;;;;;;18.30;50.70;;;;;;4984584;28;19917;-68
2022/03/31 09:03:40;;;;;;;;;;;18.30;50.80;;;;;;4982407;28;19918;-68
2022/03/31 09:06:07;;;;;;;;;;;18.30;50.80;;;;;;4966259;28;19975;-67
2022/03/31 09:08:33;;;;;;;;;;;18.20;50.80;;;;;;4982652;28;19925;-68
2022/03/31 09:11:00;;;;;;;;;;;18.30;50.90;;;;;;4982911;28;19925;-67
2022/03/31 09:13:25;;;;;;;;;;;18.20;50.90;;;;;;4957370;28;20274;-67
2022/03/31 09:15:56;;;;;;;;;;;18.20;51.00;;;;;;4993285;28;19922;-67
2022/03/31 09:18:22;;;;;;;;;;;18.20;51.00;;;;;;4962314;28;19926;-66
2022/03/31 09:20:48;;;;;;;;;;;18.20;51.00;;;;;;4995490;28;19910;-66
2022/03/31 09:23:17;;;;;;;;;;;18.20;51.00;;;;;;4964084;28;20293;-69
2022/03/31 09:25:43;;;;;;;;;;;18.20;51.00;;;;;;4979430;28;19953;-68
2022/03/31 09:28:19;;;;;;;;;;;18.20;51.00;;;;;;4981862;28;20144;-68
2022/03/31 09:31:02;;;;;;;;;;;18.20;51.10;;;;;;4981781;28;19960;-66
2022/03/31 09:33:29;;;;;;;;;;;18.20;51.20;;;;;;4966113;28;19993;-68
2022/03/31 09:35:58;;;;;;;;;;;18.10;51.20;;;;;;4982857;28;20428;-68
2022/03/31 09:38:23;;;;;;;;;;;18.10;51.40;;;;;;4982330;28;20035;-68
2022/03/31 09:40:49;;;;;;;;;;;18.00;51.50;;;;;;4970998;28;19928;-67
2022/03/31 09:43:14;;;;;;;;;;;18.00;51.80;;;;;;4965978;28;20429;-68
2022/03/31 09:45:40;;;;;;;;;;;18.00;51.80;;;;;;4983206;28;19917;-67
2022/03/31 09:48:08;;;;;;;;;;;18.00;52.00;;;;;;4983791;28;19914;-68
2022/03/31 09:50:34;;;;;;;;;;;17.90;51.90;;;;;;4981840;28;19914;-67
2022/03/31 09:53:00;;;;;;;;;;;17.90;52.00;;;;;;4966126;28;20471;-67
2022/03/31 09:55:25;;;;;;;;;;;17.90;51.90;;;;;;4972139;28;19914;-66
2022/03/31 09:57:51;;;;;;;;;;;17.80;52.00;;;;;;4982321;28;20510;-67
2022/03/31 10:00:17;;;;;;;;;;;17.90;51.90;;;;;;4983276;28;19917;-69
2022/03/31 10:02:42;;;;;;;;;;;17.90;52.00;;;;;;4967157;28;19996;-67
2022/03/31 10:05:08;;;;;;;;;;;17.90;51.90;;;;;;4951497;28;20115;-67
2022/03/31 10:07:34;;;;;;;;;;;17.90;52.50;;;;;;4981209;28;19914;-68
2022/03/31 10:09:59;;;;;;;;;;;17.90;51.90;;;;;;4978088;28;19924;-67
2022/03/31 10:12:32;;;;;;;;;;;17.90;51.90;;;;;;4965881;28;19926;-69
2022/03/31 10:15:00;;;;;;;;;;;17.90;51.90;;;;;;4965660;28;19949;-66
2022/03/31 10:17:26;;;;;;;;;;;17.90;52.00;;;;;;4975297;28;20400;-67
2022/03/31 10:19:52;;;;;;;;;;;17.90;51.90;;;;;;4981286;28;19922;-67
2022/03/31 10:25:09;;;;;;;;;;;17.90;51.80;;;;;;4968073;28;19976;-67
2022/03/31 10:27:35;;;;;;;;;;;17.90;51.90;;;;;;4981795;28;19918;-66
2022/03/31 10:30:20;;;;;;;;;;;17.90;51.90;;;;;;4980670;28;19910;-67
2022/03/31 10:32:51;;;;;;;;;;;17.90;51.90;;;;;;4965159;28;20216;-67
2022/03/31 10:35:20;;;;;;;;;;;18.00;52.00;;;;;;4982697;28;19924;-66
2022/03/31 10:37:45;;;;;;;;;;;18.00;51.80;;;;;;4981350;28;19918;-67
2022/03/31 10:40:11;;;;;;;;;;;18.00;51.70;;;;;;4981310;28;19922;-68
2022/03/31 10:42:37;;;;;;;;;;;18.00;51.70;;;;;;4964978;28;19965;-68
2022/03/31 10:45:05;;;;;;;;;;;18.00;51.60;;;;;;4965133;28;19920;-67
2022/03/31 10:47:31;;;;;;;;;;;18.00;51.60;;;;;;4982477;28;19925;-68
2022/03/31 10:49:56;;;;;;;;;;;18.00;51.60;;;;;;4983418;28;19917;-67
2022/03/31 10:52:23;;;;;;;;;;;18.10;51.60;;;;;;4988230;28;19973;-67
2022/03/31 10:54:49;;;;;;;;;;;18.00;51.50;;;;;;4988608;28;19918;-67
2022/03/31 10:57:15;;;;;;;;;;;18.00;51.60;;;;;;4983087;28;19925;-68
2022/03/31 10:59:43;;;;;;;;;;;18.00;51.50;;;;;;4970363;28;19914;-67
2022/03/31 11:02:11;;;;;;;;;;;18.10;51.60;;;;;;4988084;28;19914;-68
2022/03/31 11:04:44;;;;;;;;;;;18.10;51.50;;;;;;4988028;28;20009;-68
2022/03/31 11:07:13;;;;;;;;;;;18.10;51.60;;;;;;4976450;28;20302;-68
2022/03/31 11:09:38;;;;;;;;;;;18.10;51.50;;;;;;4987332;28;19918;-68
2022/03/31 11:12:04;;;;;;;;;;;18.10;51.50;;;;;;5009039;22;19960;-68
2022/03/31 11:14:30;;;;;;;;;;;18.10;51.40;;;;;;5007148;28;19917;-68
2022/03/31 11:16:55;;;;;;;;;;;18.20;51.50;;;;;;4989016;28;20004;-67
2022/03/31 11:19:21;;;;;;;;;;;18.10;51.40;;;;;;4973352;28;20442;-67
2022/03/31 11:21:46;;;;;;;;;;;18.20;51.40;;;;;;5006794;28;19917;-67
2022/03/31 11:24:12;;;;;;;;;;;18.20;51.40;;;;;;4989626;28;19936;-67
2022/03/31 11:26:41;;;;;;;;;;;18.20;51.50;;;;;;4992524;28;19913;-67
2022/03/31 11:29:16;;;;;;;;;;;18.10;51.30;;;;;;5005213;28;19918;-67
2022/03/31 11:31:51;;;;;;;;;;;18.10;51.20;;;;;;5002378;28;21800;-67
2022/03/31 11:34:17;;;;;;;;;;;18.20;51.40;;;;;;5007371;28;20623;-68
2022/03/31 11:36:43;;;;;;;;;;;18.10;51.30;;;;;;4991806;28;19921;-68
2022/03/31 11:39:09;;;;;;;;;;;18.10;51.40;;;;;;5005362;28;20284;-68
2022/03/31 11:41:37;;;;;;;;;;;18.10;51.40;;;;;;5005066;28;19918;-67
2022/03/31 11:44:03;;;;;;;;;;;18.10;51.30;;;;;;4989692;28;19918;-66
2022/03/31 11:46:47;;;;;;;;;;;18.20;51.40;;;;;;4973658;28;20153;-68
2022/03/31 11:49:23;;;;;;;;;;;18.10;51.40;;;;;;5005185;28;20746;-69
2022/03/31 11:51:49;;;;;;;;;;;18.10;51.40;;;;;;5006767;28;20012;-67
2022/03/31 11:54:15;;;;;;;;;;;18.10;51.40;;;;;;4989707;28;19992;-66
2022/03/31 11:56:41;;;;;;;;;;;18.10;51.50;;;;;;4989277;28;19986;-66
2022/03/31 11:59:06;;;;;;;;;;;18.20;51.50;;;;;;5005052;28;19971;-66
2022/03/31 12:01:32;;;;;;;;;;;18.10;51.40;;;;;;5004125;28;20313;-67
2022/03/31 12:03:58;;;;;;;;;;;18.10;51.40;;;;;;4986095;28;20465;-67
2022/03/31 12:06:23;;;;;;;;;;;18.10;51.40;;;;;;5003369;28;19961;-67
2022/03/31 12:08:49;;;;;;;;;;;18.10;51.50;;;;;;5003940;28;20272;-66
2022/03/31 12:11:14;;;;;;;;;;;18.10;51.40;;;;;;5003709;28;19922;-67
2022/03/31 12:13:50;;;;;;;;;;;18.10;51.50;;;;;;4978881;28;19921;-67
2022/03/31 12:16:15;;;;;;;;;;;18.10;51.30;;;;;;4968986;28;20001;-67
2022/03/31 12:18:41;;;;;;;;;;;18.10;51.40;;;;;;5001558;28;20295;-68
2022/03/31 12:21:08;;;;;;;;;;;18.10;51.40;;;;;;5001643;28;19913;-67
2022/03/31 12:23:43;;;;;;;;;;;18.10;51.40;;;;;;4990640;28;19922;-68
2022/03/31 12:26:12;;;;;;;;;;;18.10;51.40;;;;;;5003040;28;19953;-67
2022/03/31 12:28:44;;;;;;;;;;;18.10;51.40;;;;;;5002574;28;19918;-67
2022/03/31 12:31:18;;;;;;;;;;;18.10;51.40;;;;;;5003910;28;19914;-67
2022/03/31 12:33:46;;;;;;;;;;;18.10;51.40;;;;;;5003010;28;19913;-67
2022/03/31 12:36:11;;;;;;;;;;;18.10;51.40;;;;;;5003132;28;20012;-65
2022/03/31 12:38:38;;;;;;;;;;;18.10;51.40;;;;;;4995146;28;19918;-67
2022/03/31 12:41:14;;;;;;;;;;;18.10;51.40;;;;;;5003869;28;20326;-68
2022/03/31 12:43:40;;;;;;;;;;;18.10;51.40;;;;;;5002811;28;20374;-67
2022/03/31 12:46:12;;;;;;;;;;;18.00;51.40;;;;;;4985410;28;19914;-67
2022/03/31 12:48:37;;;;;;;;;;;18.10;51.40;;;;;;4992848;28;19914;-67
2022/03/31 12:51:03;;;;;;;;;;;18.10;51.40;;;;;;5002606;28;19917;-67
2022/03/31 12:53:38;;;;;;;;;;;18.10;51.40;;;;;;4975686;28;19945;-67
2022/03/31 12:56:04;;;;;;;;;;;18.10;51.40;;;;;;4983115;28;19917;-67
2022/03/31 12:58:36;;;;;;;;;;;18.10;51.30;;;;;;4980484;28;19924;-67
2022/03/31 13:01:01;;;;;;;;;;;18.10;51.30;;;;;;5002066;28;20188;-67
2022/03/31 13:03:27;;;;;;;;;;;18.10;51.40;;;;;;5002517;28;19975;-67
2022/03/31 13:05:52;;;;;;;;;;;18.10;51.40;;;;;;5002755;28;19923;-67
2022/03/31 13:08:18;;;;;;;;;;;18.10;51.30;;;;;;4965313;28;19914;-67
2022/03/31 13:10:43;;;;;;;;;;;18.10;51.40;;;;;;4965219;28;20410;-68
2022/03/31 13:13:10;;;;;;;;;;;18.10;51.30;;;;;;4959589;28;19925;-67
2022/03/31 13:15:36;;;;;;;;;;;18.10;51.30;;;;;;5000979;28;19949;-67
2022/03/31 13:18:01;;;;;;;;;;;18.00;51.40;;;;;;4984745;28;20359;-67
2022/03/31 13:20:28;;;;;;;;;;;18.00;51.30;;;;;;4999945;28;19917;-67
2022/03/31 13:22:54;;;;;;;;;;;18.10;51.30;;;;;;5001041;28;19921;-67
2022/03/31 13:25:20;;;;;;;;;;;18.10;51.40;;;;;;4968312;28;19921;-67
2022/03/31 13:27:46;;;;;;;;;;;18.10;51.40;;;;;;5002089;28;20421;-67
2022/03/31 13:30:11;;;;;;;;;;;18.10;51.30;;;;;;5001823;28;20008;-66
2022/03/31 13:32:37;;;;;;;;;;;18.10;51.40;;;;;;4984811;28;20335;-66
2022/03/31 13:35:03;;;;;;;;;;;18.10;51.30;;;;;;4987174;28;20005;-66
2022/03/31 13:37:29;;;;;;;;;;;18.00;51.40;;;;;;4984886;28;19917;-67
2022/03/31 13:39:54;;;;;;;;;;;18.00;51.40;;;;;;4997729;28;19939;-66
2022/03/31 13:42:20;;;;;;;;;;;18.00;51.40;;;;;;5001846;28;19918;-66
2022/03/31 13:44:45;;;;;;;;;;;18.00;51.30;;;;;;4973968;28;19928;-67
2022/03/31 13:47:11;;;;;;;;;;;18.00;51.30;;;;;;4984025;28;19922;-66
2022/03/31 13:49:36;;;;;;;;;;;18.00;51.30;;;;;;4975600;28;19914;-67
2022/03/31 13:52:02;;;;;;;;;;;18.00;51.50;;;;;;5000404;28;19917;-66
2022/03/31 13:54:34;;;;;;;;;;;18.00;51.60;;;;;;4994156;28;19914;-68
2022/03/31 13:56:59;;;;;;;;;;;18.00;51.60;;;;;;4985403;28;19921;-68
2022/03/31 14:02:09;;;;;;;;;;;18.00;51.60;;;;;;4986247;28;20182;-66
2022/03/31 14:04:36;;;;;;;;;;;18.00;51.50;;;;;;5001186;28;20352;-67
2022/03/31 14:07:03;;;;;;;;;;;18.00;51.40;;;;;;4999419;28;19967;-67
2022/03/31 14:09:28;;;;;;;;;;;18.00;51.50;;;;;;4995661;28;19918;-67
2022/03/31 14:11:54;;;;;;;;;;;18.00;51.50;;;;;;4968534;28;19932;-66
2022/03/31 14:14:22;;;;;;;;;;;18.00;51.50;;;;;;5001645;28;19921;-67
2022/03/31 14:16:48;;;;;;;;;;;18.00;51.40;;;;;;4983951;28;19921;-66
2022/03/31 14:19:17;;;;;;;;;;;18.00;51.30;;;;;;4998594;28;20016;-67